Time;durP1;ratioP1;P1;durP2;ratioP2;P2;SDS_P1;SDS_P2;PMS_P1;PMS_P2;Temp;Humidity;BMP_temperature;BMP_pressure;BME280_temperature;BME280_humidity;BME280_pressure;Samples;Min_cycle;Max_cycle;Signal;HPM_P1;HPM_P2
2021/08/14 00:05:08;;;;;;;51.33;46.77;;;;;;;17.64;100.00;102222.79;1971809;73;31082;-73
2021/08/14 00:10:35;;;;;;;52.10;47.37;;;;;;;17.48;100.00;102219.87;1971685;73;30946;-75
2021/08/14 00:16:02;;;;;;;52.37;47.93;;;;;;;17.38;100.00;102216.59;1971722;73;31035;-76
2021/08/14 00:21:27;;;;;;;54.17;49.67;;;;;;;17.45;100.00;102217.09;1959867;73;31056;-76
2021/08/14 00:26:52;;;;;;;52.43;47.33;;;;;;;17.38;100.00;102205.92;1971805;73;31047;-76
2021/08/14 00:32:16;;;;;;;51.43;46.67;;;;;;;17.43;100.00;102205.87;1971849;73;31491;-76
2021/08/14 00:37:41;;;;;;;50.93;46.13;;;;;;;17.28;100.00;102204.90;1971739;73;30960;-72
2021/08/14 00:43:08;;;;;;;50.60;45.93;;;;;;;17.24;100.00;102203.02;1971784;73;31018;-75
2021/08/14 00:48:37;;;;;;;49.33;44.63;;;;;;;17.18;100.00;102200.81;1971737;73;31026;-76
2021/08/14 00:54:03;;;;;;;47.77;43.70;;;;;;;17.03;100.00;102199.55;1971792;72;31151;-72
2021/08/14 00:59:53;;;;;;;50.33;45.80;;;;;;;17.10;100.00;102197.81;2001589;71;31430;-76
2021/08/14 01:05:18;;;;;;;49.70;45.63;;;;;;;16.98;100.00;102196.81;1971913;72;30945;-73
2021/08/14 01:10:45;;;;;;;51.10;45.93;;;;;;;16.85;100.00;102194.70;1971893;72;33464;-73
2021/08/14 01:16:10;;;;;;;49.73;45.17;;;;;;;16.86;100.00;102188.52;1971795;73;30969;-72
2021/08/14 01:21:35;;;;;;;45.67;41.73;;;;;;;16.80;100.00;102188.56;1971824;73;31507;-76
2021/08/14 01:27:01;;;;;;;47.40;42.87;;;;;;;16.79;100.00;102188.28;1971691;73;32930;-76
2021/08/14 01:32:25;;;;;;;49.53;45.13;;;;;;;16.82;100.00;102182.63;1971818;73;32980;-75
2021/08/14 01:37:50;;;;;;;49.60;45.33;;;;;;;16.84;100.00;102191.61;1971704;72;32993;-75
2021/08/14 01:43:14;;;;;;;50.47;45.17;;;;;;;16.78;100.00;102182.39;1971708;73;33002;-76
2021/08/14 01:48:45;;;;;;;46.53;42.60;;;;;;;16.74;100.00;102175.69;1971910;73;33513;-76
2021/08/14 01:54:09;;;;;;;46.33;42.17;;;;;;;16.67;100.00;102168.75;1971700;73;32916;-72
2021/08/14 01:59:34;;;;;;;46.87;42.77;;;;;;;16.54;100.00;102172.20;1971815;72;33405;-72
2021/08/14 02:05:00;;;;;;;47.50;43.30;;;;;;;16.59;100.00;102165.18;1971867;73;33386;-76
2021/08/14 02:10:24;;;;;;;47.93;43.63;;;;;;;16.45;100.00;102171.15;1971719;73;33079;-72
2021/08/14 02:15:49;;;;;;;49.13;44.93;;;;;;;16.44;100.00;102163.30;1971858;73;33451;-76
2021/08/14 02:21:14;;;;;;;45.33;41.70;;;;;;;16.43;100.00;102170.03;1962607;73;33056;-72
2021/08/14 02:26:38;;;;;;;46.00;41.43;;;;;;;16.33;100.00;102167.32;1971678;73;32998;-73
2021/08/14 02:32:04;;;;;;;47.43;43.43;;;;;;;16.42;100.00;102161.36;1971859;73;33057;-76
2021/08/14 02:37:28;;;;;;;46.53;42.20;;;;;;;16.29;100.00;102159.22;1971912;73;33428;-72
2021/08/14 02:42:52;;;;;;;48.57;43.63;;;;;;;16.27;100.00;102168.47;1971666;73;32994;-75
2021/08/14 02:48:17;;;;;;;48.43;44.03;;;;;;;16.28;100.00;102164.55;1971735;73;33491;-75
2021/08/14 02:53:42;;;;;;;46.20;42.10;;;;;;;16.24;100.00;102156.45;1971636;73;33013;-76
2021/08/14 02:59:07;;;;;;;45.77;41.90;;;;;;;15.94;100.00;102162.53;1971890;73;32989;-75
2021/08/14 03:04:31;;;;;;;45.33;41.33;;;;;;;16.06;100.00;102161.33;1971870;73;33526;-76
2021/08/14 03:09:56;;;;;;;47.07;42.67;;;;;;;16.16;100.00;102162.12;1971630;73;33032;-72
2021/08/14 03:15:21;;;;;;;47.03;42.57;;;;;;;15.94;100.00;102156.93;1971688;73;32908;-72
2021/08/14 03:20:54;;;;;;;46.37;42.10;;;;;;;15.98;100.00;102160.55;1966501;73;33515;-76
2021/08/14 03:26:19;;;;;;;47.80;43.40;;;;;;;15.92;100.00;102155.52;1971760;73;32998;-76
2021/08/14 03:31:43;;;;;;;47.00;42.67;;;;;;;15.83;100.00;102156.70;1971684;73;32916;-72
2021/08/14 03:37:08;;;;;;;46.63;42.67;;;;;;;15.93;100.00;102153.00;1971658;73;33056;-76
2021/08/14 03:42:32;;;;;;;44.63;40.70;;;;;;;15.97;100.00;102147.66;1971794;73;33482;-76
2021/08/14 03:47:58;;;;;;;44.40;40.53;;;;;;;15.90;100.00;102141.83;1972159;73;32991;-77
2021/08/14 03:53:23;;;;;;;46.93;42.43;;;;;;;15.94;100.00;102137.88;1971881;73;33626;-76
2021/08/14 03:58:48;;;;;;;45.27;41.20;;;;;;;15.69;100.00;102136.62;1971854;73;33410;-72
2021/08/14 04:04:11;;;;;;;47.53;43.00;;;;;;;15.82;100.00;102138.23;1971894;73;31128;-76
2021/08/14 04:09:38;;;;;;;45.87;41.67;;;;;;;15.75;100.00;102140.49;1971907;73;33438;-72
2021/08/14 04:15:06;;;;;;;46.07;41.97;;;;;;;15.67;100.00;102132.70;1971752;73;32991;-76
2021/08/14 04:20:31;;;;;;;46.80;42.57;;;;;;;15.77;100.00;102138.25;1971411;71;32933;-71
2021/08/14 04:25:55;;;;;;;45.13;41.53;;;;;;;15.74;100.00;102138.00;1971871;73;33115;-72
2021/08/14 04:31:20;;;;;;;47.43;43.03;;;;;;;15.74;100.00;102131.00;1971931;73;31061;-76
2021/08/14 04:36:44;;;;;;;46.77;42.93;;;;;;;15.69;100.00;102138.86;1971924;72;33553;-72
2021/08/14 04:42:09;;;;;;;46.10;41.93;;;;;;;15.79;100.00;102142.99;1971901;73;33534;-72
2021/08/14 04:47:33;;;;;;;46.17;42.20;;;;;;;15.85;100.00;102141.84;1971931;73;32971;-75
2021/08/14 04:52:58;;;;;;;47.17;42.67;;;;;;;15.92;100.00;102143.75;1971917;73;33391;-71
2021/08/14 04:58:22;;;;;;;45.10;41.60;;;;;;;15.96;100.00;102150.20;1971702;73;33129;-72
2021/08/14 05:03:47;;;;;;;46.40;42.50;;;;;;;15.94;100.00;102140.11;1972030;73;33477;-76
2021/08/14 05:09:11;;;;;;;47.20;43.43;;;;;;;16.01;100.00;102148.19;1971773;73;33091;-73
2021/08/14 05:14:38;;;;;;;48.67;44.53;;;;;;;16.06;100.00;102152.36;1971874;73;32962;-75
2021/08/14 05:20:03;;;;;;;47.07;42.87;;;;;;;16.04;100.00;102158.00;1972013;73;31477;-76
2021/08/14 05:25:28;;;;;;;45.83;42.07;;;;;;;16.06;100.00;102157.12;1971823;73;32928;-72
2021/08/14 05:30:53;;;;;;;47.87;43.93;;;;;;;16.10;100.00;102161.86;1971714;73;33075;-74
2021/08/14 05:36:18;;;;;;;48.50;44.67;;;;;;;16.15;100.00;102176.41;1972079;73;31512;-72
2021/08/14 05:41:46;;;;;;;47.87;44.00;;;;;;;16.23;100.00;102169.63;1971989;73;33508;-75
2021/08/14 05:47:09;;;;;;;47.73;43.30;;;;;;;16.26;100.00;102173.23;1971770;73;33038;-73
2021/08/14 05:52:34;;;;;;;45.73;42.13;;;;;;;16.31;100.00;102169.00;1971785;73;32918;-74
2021/08/14 05:57:58;;;;;;;49.33;45.73;;;;;;;16.36;100.00;102159.72;1972082;73;32994;-72
2021/08/14 06:03:23;;;;;;;49.07;45.07;;;;;;;16.30;100.00;102168.72;1971825;73;32967;-75
2021/08/14 06:08:48;;;;;;;48.70;45.00;;;;;;;16.31;100.00;102161.99;1971857;73;33455;-72
2021/08/14 06:14:12;;;;;;;47.67;43.93;;;;;;;16.37;100.00;102161.40;1971773;73;32985;-75
2021/08/14 06:19:37;;;;;;;48.80;44.97;;;;;;;16.30;100.00;102165.92;1971985;73;33447;-73
2021/08/14 06:25:02;;;;;;;49.03;45.33;;;;;;;16.44;100.00;102167.50;1972034;72;32932;-73
2021/08/14 06:30:29;;;;;;;46.63;42.93;;;;;;;16.66;100.00;102169.88;1971729;73;33005;-74
2021/08/14 06:35:53;;;;;;;49.03;44.90;;;;;;;16.80;100.00;102166.11;1972077;73;30985;-73
2021/08/14 06:41:17;;;;;;;47.93;44.03;;;;;;;16.92;100.00;102158.69;1971686;73;33101;-73
2021/08/14 06:46:44;;;;;;;50.20;46.33;;;;;;;17.04;100.00;102157.72;1971691;73;33564;-73
2021/08/14 06:52:09;;;;;;;47.97;43.93;;;;;;;17.02;100.00;102158.59;1971900;73;31505;-73
2021/08/14 06:57:34;;;;;;;48.60;44.67;;;;;;;17.30;100.00;102166.69;1971825;73;33470;-73
2021/08/14 07:02:58;;;;;;;45.33;41.70;;;;;;;17.47;100.00;102154.97;1971833;73;33043;-73
2021/08/14 07:08:23;;;;;;;47.40;43.80;;;;;;;17.59;100.00;102158.22;1971866;73;33106;-74
2021/08/14 07:13:48;;;;;;;45.07;41.47;;;;;;;17.74;100.00;102156.63;1971693;73;31022;-73
2021/08/14 07:19:12;;;;;;;43.60;40.30;;;;;;;17.87;100.00;102148.85;1971794;73;32960;-72
2021/08/14 07:24:37;;;;;;;46.43;42.83;;;;;;;17.82;100.00;102157.36;1971791;73;31445;-74
2021/08/14 07:30:02;;;;;;;46.27;42.77;;;;;;;17.72;100.00;102162.53;1971938;73;31460;-74
2021/08/14 07:35:26;;;;;;;49.07;45.57;;;;;;;17.90;100.00;102158.08;1971859;73;33386;-72
2021/08/14 07:40:51;;;;;;;46.67;43.30;;;;;;;18.20;100.00;102151.16;1971748;73;31100;-73
2021/08/14 07:46:15;;;;;;;47.23;43.63;;;;;;;18.46;100.00;102152.44;1971757;73;31058;-74
2021/08/14 07:51:40;;;;;;;47.17;43.80;;;;;;;18.41;100.00;102151.67;1971834;73;31490;-74
2021/08/14 07:57:05;;;;;;;45.67;42.47;;;;;;;18.49;100.00;102149.56;1971702;73;31009;-74
2021/08/14 08:02:29;;;;;;;45.97;42.57;;;;;;;18.74;100.00;102143.52;1971871;73;33519;-73
2021/08/14 08:07:54;;;;;;;44.73;41.73;;;;;;;18.93;100.00;102143.47;1971813;73;31061;-74
2021/08/14 08:13:19;;;;;;;44.20;40.93;;;;;;;18.98;100.00;102144.78;1971889;73;31577;-73
2021/08/14 08:18:43;;;;;;;44.63;41.43;;;;;;;19.21;100.00;102135.90;1971739;73;30975;-73
2021/08/14 08:24:13;;;;;;;42.50;39.37;;;;;;;19.49;100.00;102136.19;1971728;73;31061;-74
2021/08/14 08:29:39;;;;;;;42.00;39.07;;;;;;;19.55;100.00;102130.11;1971613;73;31025;-74
2021/08/14 08:35:12;;;;;;;44.70;41.43;;;;;;;19.76;100.00;102128.27;1971824;73;31056;-73
2021/08/14 08:40:40;;;;;;;44.33;41.40;;;;;;;19.86;100.00;102122.38;1971668;73;31045;-74
2021/08/14 08:46:05;;;;;;;42.73;39.73;;;;;;;20.15;100.00;102123.41;1971827;73;31039;-74
2021/08/14 08:51:32;;;;;;;42.63;39.80;;;;;;;20.21;100.00;102106.02;1971666;73;31024;-74
2021/08/14 08:56:57;;;;;;;41.23;38.37;;;;;;;20.40;100.00;102112.36;1971656;73;30961;-73
2021/08/14 09:02:27;;;;;;;40.73;37.93;;;;;;;20.37;100.00;102111.57;1971818;73;31431;-75
2021/08/14 09:08:13;;;;;;;40.60;37.80;;;;;;;20.50;100.00;102108.42;1971744;73;31092;-73
2021/08/14 09:13:39;;;;;;;38.53;36.03;;;;;;;20.57;100.00;102103.75;1971910;73;31035;-74
2021/08/14 09:19:24;;;;;;;38.37;35.87;;;;;;;20.61;100.00;102092.06;1971723;73;30996;-74
2021/08/14 09:24:49;;;;;;;38.63;36.10;;;;;;;20.67;100.00;102087.36;1971669;73;30940;-73
2021/08/14 09:30:13;;;;;;;37.73;35.13;;;;;;;20.97;100.00;102084.27;1971837;73;31522;-73
2021/08/14 09:35:38;;;;;;;41.07;38.50;;;;;;;21.22;100.00;102079.33;1971693;73;30932;-74
2021/08/14 09:41:10;;;;;;;36.70;34.47;;;;;;;21.41;100.00;102080.47;1971637;73;30965;-74
2021/08/14 09:46:43;;;;;;;33.33;31.13;;;;;;;21.57;100.00;102072.34;1971828;73;31450;-74
2021/08/14 09:52:22;;;;;;;35.50;33.10;;;;;;;21.80;100.00;102059.74;1971721;73;30965;-73
2021/08/14 09:57:51;;;;;;;36.67;34.37;;;;;;;22.02;100.00;102063.02;1971911;73;31416;-73
2021/08/14 10:03:18;;;;;;;35.23;33.03;;;;;;;22.00;100.00;102067.59;1972017;73;30991;-74
2021/08/14 10:08:43;;;;;;;34.63;32.70;;;;;;;21.92;100.00;102068.42;1971887;73;31500;-73
2021/08/14 10:14:11;;;;;;;33.47;31.57;;;;;;;22.15;100.00;102062.02;1971890;72;31024;-73
2021/08/14 10:19:37;;;;;;;34.20;32.20;;;;;;;22.32;100.00;102056.34;1971561;73;31025;-74
2021/08/14 10:25:04;;;;;;;33.42;31.42;;;;;;;22.18;100.00;102069.84;1971724;73;31494;-73
2021/08/14 10:30:50;;;;;;;35.20;32.93;;;;;;;22.20;100.00;102060.44;1971777;73;31006;-73
2021/08/14 10:36:38;;;;;;;31.55;29.63;;;;;;;22.53;100.00;102056.45;1971550;73;31057;-74
2021/08/14 10:42:14;;;;;;;31.27;29.37;;;;;;;22.52;100.00;102046.29;1971578;73;30949;-71
2021/08/14 10:47:45;;;;;;;31.60;29.60;;;;;;;22.51;100.00;102044.05;1971584;73;30947;-73
2021/08/14 10:53:51;;;;;;;32.85;30.75;;;;;;;22.55;100.00;102044.19;1971604;72;30936;-74
2021/08/14 11:00:03;;;;;;;29.98;27.93;;;;;;;22.54;100.00;102042.55;1971554;73;31050;-74
2021/08/14 11:05:32;;;;;;;31.35;29.55;;;;;;;22.60;100.00;102027.02;1971808;73;31498;-73
2021/08/14 11:10:58;;;;;;;30.05;28.25;;;;;;;22.72;100.00;102030.63;1971819;72;31026;-73
2021/08/14 11:14:20;;;;;;;31.93;29.77;;;;;;;22.72;100.00;102024.95;1934394;74;24206;-72
2021/08/14 11:19:58;;;;;;;32.13;30.32;;;;;;;22.79;100.00;102018.16;1971600;73;31003;-73
2021/08/14 11:25:26;;;;;;;30.57;28.70;;;;;;;22.81;100.00;102029.97;1971616;73;31059;-74
2021/08/14 11:30:57;;;;;;;30.05;28.40;;;;;;;22.85;100.00;102023.91;1971660;73;31060;-74
2021/08/14 11:36:25;;;;;;;30.65;28.85;;;;;;;23.02;100.00;102028.04;1971638;73;30961;-72
2021/08/14 11:39:02;;;;;;;31.10;29.23;;;;;;;22.92;100.00;102028.45;1934617;74;24195;-72
2021/08/14 11:44:28;;;;;;;43.30;41.00;;;;;;;22.92;100.00;102022.78;1971574;73;31015;-73
2021/08/14 11:49:58;;;;;;;36.00;33.78;;;;;;;23.00;100.00;102013.39;1971833;73;30955;-73
2021/08/14 11:55:23;;;;;;;31.97;30.08;;;;;;;23.10;100.00;102011.61;1971578;73;31031;-74
2021/08/14 12:00:49;;;;;;;34.70;32.78;;;;;;;23.04;100.00;102001.04;1971556;73;30949;-74
2021/08/14 12:06:16;;;;;;;34.67;32.67;;;;;;;23.10;100.00;101999.65;1971788;73;31488;-72
2021/08/14 12:11:41;;;;;;;38.17;35.78;;;;;;;23.09;100.00;102004.27;1971662;73;31136;-71
2021/08/14 12:17:10;;;;;;;38.92;36.35;;;;;;;23.15;100.00;102001.45;1971507;73;30920;-73
2021/08/14 12:22:43;;;;;;;38.88;36.58;;;;;;;23.16;100.00;101994.62;1959939;71;30945;-70
2021/08/14 12:28:19;;;;;;;36.73;34.73;;;;;;;23.17;100.00;101986.37;1971664;73;31114;-73
2021/08/14 12:33:49;;;;;;;38.60;36.33;;;;;;;23.18;100.00;101958.86;1971738;73;31470;-73
2021/08/14 12:39:46;;;;;;;37.15;35.15;;;;;;;23.27;100.00;101960.46;1971540;73;31002;-71
2021/08/14 12:45:18;;;;;;;37.30;35.25;;;;;;;23.05;100.00;101955.94;1971636;73;31179;-74
2021/08/14 12:50:49;;;;;;;38.10;35.80;;;;;;;22.99;100.00;101945.13;1971650;73;31493;-74
2021/08/14 12:56:15;;;;;;;35.35;33.35;;;;;;;23.09;100.00;101941.91;1971704;73;31046;-73
2021/08/14 13:01:39;;;;;;;33.98;32.17;;;;;;;22.99;100.00;101938.87;1971741;73;31545;-74
2021/08/14 13:07:05;;;;;;;32.33;30.62;;;;;;;23.23;100.00;101927.47;1971607;73;30966;-74
2021/08/14 13:12:31;;;;;;;32.67;30.97;;;;;;;23.31;100.00;101927.98;1971551;73;31104;-71
2021/08/14 13:17:57;;;;;;;31.70;30.08;;;;;;;23.24;100.00;101917.19;1971569;73;31039;-72
2021/08/14 13:23:22;;;;;;;33.05;31.25;;;;;;;23.31;100.00;101916.65;1971709;73;31122;-74
2021/08/14 13:28:47;;;;;;;32.08;30.30;;;;;;;23.28;100.00;101912.48;1971774;73;31021;-74
2021/08/14 13:34:13;;;;;;;29.57;27.98;;;;;;;23.30;100.00;101905.89;1971537;73;30943;-73
2021/08/14 13:39:38;;;;;;;26.57;24.95;;;;;;;23.47;100.00;101911.45;1971567;73;31123;-72
2021/08/14 13:45:08;;;;;;;28.00;26.50;;;;;;;23.46;100.00;101911.20;1971637;73;31034;-73
2021/08/14 13:50:34;;;;;;;29.80;28.10;;;;;;;23.38;100.00;101895.06;1971558;72;30937;-74
2021/08/14 13:55:59;;;;;;;29.15;27.42;;;;;;;23.34;100.00;101904.02;1971681;72;31415;-71
2021/08/14 14:01:24;;;;;;;29.42;27.90;;;;;;;23.40;100.00;101889.05;1971720;73;31479;-74
2021/08/14 14:06:49;;;;;;;28.67;27.05;;;;;;;23.29;100.00;101895.72;1971594;73;31095;-74
2021/08/14 14:12:13;;;;;;;26.45;24.77;;;;;;;23.41;100.00;101887.27;1971676;73;31421;-74
2021/08/14 14:17:38;;;;;;;25.82;24.43;;;;;;;23.49;100.00;101889.23;1971568;73;30987;-74
2021/08/14 14:23:06;;;;;;;26.55;25.05;;;;;;;23.37;100.00;101890.56;1936765;74;31110;-71
2021/08/14 14:28:31;;;;;;;28.50;26.80;;;;;;;23.36;100.00;101872.49;1971854;73;31417;-71
2021/08/14 14:33:55;;;;;;;27.07;25.57;;;;;;;23.28;100.00;101870.53;1971594;73;30956;-72
2021/08/14 14:39:19;;;;;;;27.05;25.43;;;;;;;23.33;100.00;101859.83;1971646;73;30924;-72
2021/08/14 14:44:44;;;;;;;42.00;39.78;;;;;;;23.33;100.00;101858.41;1971655;73;30952;-74
2021/08/14 14:50:10;;;;;;;27.40;25.80;;;;;;;23.65;100.00;101861.64;1971745;73;31050;-71
2021/08/14 14:55:34;;;;;;;27.85;26.25;;;;;;;23.56;100.00;101851.22;1971631;73;31135;-74
2021/08/14 15:01:00;;;;;;;28.38;26.68;;;;;;;23.22;100.00;101852.09;1971603;73;31008;-74
2021/08/14 15:06:25;;;;;;;26.27;24.67;;;;;;;23.19;100.00;101849.34;1971661;73;30962;-72
2021/08/14 15:11:50;;;;;;;25.97;24.50;;;;;;;23.42;100.00;101842.73;1971607;73;30979;-74
2021/08/14 15:17:15;;;;;;;22.93;21.60;;;;;;;23.63;100.00;101830.78;1971558;73;31004;-73
2021/08/14 15:22:41;;;;;;;23.00;21.65;;;;;;;23.81;100.00;101826.58;1971487;73;31106;-71
2021/08/14 15:28:07;;;;;;;22.52;21.05;;;;;;;23.75;100.00;101825.13;1971593;73;31073;-73
2021/08/14 15:33:31;;;;;;;21.70;20.40;;;;;;;23.77;100.00;101827.05;1971541;73;31002;-74
2021/08/14 15:38:55;;;;;;;24.72;23.32;;;;;;;23.64;100.00;101814.59;1971579;73;31034;-71
2021/08/14 15:44:20;;;;;;;23.55;22.15;;;;;;;23.62;100.00;101809.26;1971765;73;31051;-74
2021/08/14 15:49:44;;;;;;;23.62;22.25;;;;;;;23.56;100.00;101807.25;1971575;73;31069;-71
2021/08/14 15:55:11;;;;;;;24.77;23.38;;;;;;;23.50;100.00;101804.39;1971711;73;31492;-74
2021/08/14 16:00:36;;;;;;;21.15;19.85;;;;;;;23.41;100.00;101807.86;1971688;73;31521;-74
2021/08/14 16:06:02;;;;;;;23.02;21.62;;;;;;;23.44;100.00;101814.90;1971595;73;31046;-72
2021/08/14 16:11:27;;;;;;;21.05;19.70;;;;;;;23.49;100.00;101806.17;1971512;73;31109;-74
2021/08/14 16:16:52;;;;;;;20.37;19.17;;;;;;;23.43;100.00;101797.05;1971507;73;31071;-73
2021/08/14 16:22:16;;;;;;;21.90;20.60;;;;;;;23.47;100.00;101777.32;1962371;71;31133;-72
2021/08/14 16:27:41;;;;;;;20.48;19.05;;;;;;;23.55;100.00;101775.80;1971631;73;31482;-74
2021/08/14 16:33:08;;;;;;;19.95;18.60;;;;;;;23.56;100.00;101778.89;1971538;73;31165;-73
2021/08/14 16:38:33;;;;;;;19.52;18.27;;;;;;;23.58;100.00;101768.00;1971694;73;31583;-73
2021/08/14 16:43:57;;;;;;;18.67;17.57;;;;;;;23.58;100.00;101775.09;1971545;73;31076;-74
2021/08/14 16:49:22;;;;;;;20.88;19.77;;;;;;;23.64;100.00;101765.78;1971644;73;31040;-74
2021/08/14 16:54:47;;;;;;;21.45;20.25;;;;;;;23.56;100.00;101763.88;1971544;73;30981;-74
2021/08/14 17:00:22;;;;;;;17.90;16.90;;;;;;;23.59;100.00;101761.74;1971684;73;30971;-73
2021/08/14 17:05:46;;;;;;;18.62;17.42;;;;;;;23.53;100.00;101767.42;1972132;73;31578;-75
2021/08/14 17:11:11;;;;;;;17.15;16.05;;;;;;;23.53;100.00;101758.30;1972169;73;31443;-75
2021/08/14 17:16:35;;;;;;;18.73;17.35;;;;;;;23.53;100.00;101755.45;1971920;73;31606;-72
2021/08/14 17:22:00;;;;;;;18.05;16.95;;;;;;;23.56;100.00;101753.36;1971895;73;31169;-73
2021/08/14 17:27:24;;;;;;;17.23;16.23;;;;;;;23.55;100.00;101759.37;1971875;73;30975;-72
2021/08/14 17:33:08;;;;;;;16.77;15.48;;;;;;;23.48;100.00;101749.20;2000243;71;31388;-74
2021/08/14 17:38:33;;;;;;;17.57;16.50;;;;;;;23.49;100.00;101744.58;1972095;73;31074;-75
2021/08/14 17:43:58;;;;;;;17.32;16.00;;;;;;;23.48;100.00;101742.95;1971936;73;31580;-72
2021/08/14 17:49:22;;;;;;;17.92;16.77;;;;;;;23.38;100.00;101737.68;1971780;73;31066;-78
2021/08/14 17:54:47;;;;;;;17.25;16.15;;;;;;;23.33;100.00;101740.73;1972018;73;30963;-72
2021/08/14 18:00:14;;;;;;;17.15;16.10;;;;;;;23.27;100.00;101739.91;1971810;73;31050;-72
2021/08/14 18:05:38;;;;;;;16.77;15.88;;;;;;;23.03;100.00;101730.12;1972105;73;31611;-75
2021/08/14 18:11:03;;;;;;;17.27;16.07;;;;;;;23.03;100.00;101720.78;1972000;73;31035;-77
2021/08/14 18:16:28;;;;;;;17.60;16.40;;;;;;;22.87;100.00;101724.03;1972000;73;31073;-75
2021/08/14 18:21:52;;;;;;;16.80;15.58;;;;;;;22.81;100.00;101736.16;1971954;73;31448;-73
2021/08/14 18:27:17;;;;;;;16.67;15.50;;;;;;;22.56;100.00;101731.50;1971839;73;31096;-72
2021/08/14 18:32:41;;;;;;;16.57;15.48;;;;;;;22.42;100.00;101730.35;1972102;73;31119;-73
2021/08/14 18:38:07;;;;;;;16.82;15.53;;;;;;;22.38;100.00;101720.89;1972065;72;31508;-75
2021/08/14 18:43:32;;;;;;;16.32;15.15;;;;;;;22.30;100.00;101729.44;1972032;73;30979;-75
2021/08/14 18:48:56;;;;;;;16.27;15.13;;;;;;;22.20;100.00;101720.20;1972062;73;31067;-75
2021/08/14 18:54:21;;;;;;;16.70;15.58;;;;;;;22.15;100.00;101720.40;1972099;73;31120;-73
2021/08/14 18:59:45;;;;;;;17.07;15.95;;;;;;;22.04;100.00;101718.28;1971959;73;30978;-77
2021/08/14 19:05:13;;;;;;;17.32;16.02;;;;;;;21.98;100.00;101719.67;1972017;73;31000;-77
2021/08/14 19:10:38;;;;;;;17.40;15.93;;;;;;;21.87;100.00;101725.42;1972231;73;31582;-75
2021/08/14 19:16:02;;;;;;;18.52;17.32;;;;;;;21.76;100.00;101728.64;1972020;72;30976;-77
2021/08/14 19:21:27;;;;;;;18.52;17.23;;;;;;;21.68;100.00;101730.94;1960436;73;31656;-72
2021/08/14 19:26:52;;;;;;;18.20;17.00;;;;;;;21.67;100.00;101740.58;1971998;73;31041;-77
2021/08/14 19:32:16;;;;;;;18.75;17.40;;;;;;;21.59;100.00;101737.78;1972037;73;30984;-75
2021/08/14 19:37:41;;;;;;;17.42;16.37;;;;;;;21.54;100.00;101741.62;1972044;73;30982;-74
2021/08/14 19:43:08;;;;;;;18.87;17.62;;;;;;;21.42;100.00;101743.48;1972083;73;31049;-75
2021/08/14 19:48:32;;;;;;;19.87;18.37;;;;;;;21.25;100.00;101746.61;1972093;73;31043;-75
2021/08/14 19:53:57;;;;;;;20.13;18.73;;;;;;;21.19;100.00;101747.11;1972032;73;31137;-73
2021/08/14 19:59:24;;;;;;;19.40;17.92;;;;;;;21.16;100.00;101747.78;1972035;73;31093;-75
2021/08/14 20:04:50;;;;;;;19.60;18.30;;;;;;;21.10;100.00;101740.60;1971922;73;30984;-77
2021/08/14 20:10:15;;;;;;;20.60;19.30;;;;;;;20.98;100.00;101744.11;1972281;73;30956;-75
2021/08/14 20:15:42;;;;;;;20.50;19.12;;;;;;;20.91;100.00;101748.04;1972250;72;31106;-75
2021/08/14 20:21:06;;;;;;;22.33;20.77;;;;;;;20.82;100.00;101760.75;1972278;73;31466;-75
2021/08/14 20:26:31;;;;;;;22.73;21.13;;;;;;;20.73;100.00;101754.27;1972223;73;31498;-75
2021/08/14 20:31:56;;;;;;;23.25;21.85;;;;;;;20.62;100.00;101745.89;1972074;73;31118;-75
2021/08/14 20:37:21;;;;;;;23.07;21.57;;;;;;;20.57;100.00;101757.91;1972213;73;31474;-75
2021/08/14 20:42:45;;;;;;;25.13;23.43;;;;;;;20.29;100.00;101767.20;1972251;73;31504;-75
2021/08/14 20:48:12;;;;;;;25.83;24.13;;;;;;;20.35;100.00;101770.16;1972044;73;30956;-75
2021/08/14 20:53:37;;;;;;;25.77;24.10;;;;;;;20.28;100.00;101765.56;1972040;73;30986;-73
2021/08/14 20:59:03;;;;;;;27.73;26.07;;;;;;;20.24;100.00;101764.53;1972069;73;30937;-75
2021/08/14 21:04:28;;;;;;;28.43;26.63;;;;;;;20.11;100.00;101751.41;1972214;73;33484;-75
2021/08/14 21:09:53;;;;;;;29.23;27.27;;;;;;;19.92;100.00;101748.28;1972236;73;31594;-75
2021/08/14 21:15:17;;;;;;;31.17;28.97;;;;;;;19.87;100.00;101747.01;1972137;73;31041;-74
2021/08/14 21:20:43;;;;;;;31.93;29.53;;;;;;;19.87;100.00;101739.96;1972194;73;31448;-74
2021/08/14 21:26:08;;;;;;;32.73;30.50;;;;;;;19.85;100.00;101734.41;1972233;73;31554;-76
2021/08/14 21:31:52;;;;;;;34.73;32.33;;;;;;;19.63;100.00;101742.36;2016237;71;30937;-74
2021/08/14 21:37:36;;;;;;;36.13;33.73;;;;;;;19.52;100.00;101737.56;2016593;71;30843;-74
2021/08/14 21:43:02;;;;;;;40.07;37.47;;;;;;;19.49;100.00;101743.86;1972308;73;31028;-75
2021/08/14 21:48:27;;;;;;;44.83;41.93;;;;;;;19.37;100.00;101745.02;1972321;73;31051;-73
2021/08/14 21:53:51;;;;;;;40.13;37.63;;;;;;;19.45;100.00;101734.97;1972199;73;31487;-75
2021/08/14 21:59:16;;;;;;;42.60;40.00;;;;;;;19.45;100.00;101743.42;1972005;73;30951;-75
2021/08/14 22:05:00;;;;;;;43.40;40.60;;;;;;;19.31;100.00;101744.88;2016374;71;30876;-73
2021/08/14 22:10:25;;;;;;;44.40;41.63;;;;;;;19.29;100.00;101740.16;1972214;73;31464;-75
2021/08/14 22:15:50;;;;;;;45.03;41.73;;;;;;;19.28;100.00;101737.66;1972044;73;30973;-75
2021/08/14 22:21:20;;;;;;;48.20;45.17;;;;;;;19.28;100.00;101724.98;1972186;73;31491;-74
2021/08/14 22:26:45;;;;;;;48.37;45.40;;;;;;;19.17;100.00;101727.83;1972168;73;31504;-74
2021/08/14 22:32:10;;;;;;;50.80;47.53;;;;;;;19.13;100.00;101738.87;1971979;73;30959;-73
2021/08/14 22:37:55;;;;;;;51.13;47.97;;;;;;;19.10;100.00;101730.50;1971977;73;30956;-75
2021/08/14 22:43:22;;;;;;;49.20;46.20;;;;;;;19.10;100.00;101728.26;1972219;73;31097;-75
2021/08/14 22:48:49;;;;;;;51.63;48.57;;;;;;;18.89;100.00;101723.73;1972101;73;30953;-74
2021/08/14 22:54:14;;;;;;;49.73;46.43;;;;;;;18.79;100.00;101714.70;1971969;72;30968;-76
2021/08/14 22:59:58;;;;;;;48.37;45.17;;;;;;;18.69;100.00;101703.70;2016207;71;30910;-74
2021/08/14 23:05:24;;;;;;;49.83;46.93;;;;;;;18.80;100.00;101703.12;1972175;73;31037;-75
2021/08/14 23:10:50;;;;;;;45.60;42.80;;;;;;;18.77;100.00;101681.83;1972210;73;31504;-74
2021/08/14 23:16:14;;;;;;;46.63;43.43;;;;;;;18.84;100.00;101687.83;1972070;72;30983;-74
2021/08/14 23:21:39;;;;;;;46.57;43.67;;;;;;;18.70;100.00;101693.52;1972016;73;30971;-75
2021/08/14 23:27:23;;;;;;;45.87;42.90;;;;;;;18.69;100.00;101673.58;2016226;71;30883;-75
2021/08/14 23:32:48;;;;;;;47.07;44.07;;;;;;;18.62;100.00;101679.64;1972019;73;31035;-75
2021/08/14 23:38:13;;;;;;;46.57;43.77;;;;;;;18.64;100.00;101690.59;1972188;73;30957;-75
2021/08/14 23:43:36;;;;;;;47.10;44.30;;;;;;;18.59;100.00;101685.08;1971937;73;31059;-76
2021/08/14 23:49:01;;;;;;;47.20;43.93;;;;;;;18.49;100.00;101689.50;1972012;73;30983;-75
2021/08/14 23:54:26;;;;;;;47.47;44.47;;;;;;;18.17;100.00;101689.98;1972183;73;31451;-74
2021/08/14 23:59:53;;;;;;;47.17;44.17;;;;;;;18.19;100.00;101682.05;1972202;73;31463;-75
